sensor_id;sensor_type;location;lat;lon;timestamp;noise_LAeq;noise_LA_min;noise_LA_max;noise_LA01;noise_LA95
36217;Laerm;22259;48.792;8.964;2023-04-03T00:00:37;41.58;38.13;48.01;;
36217;Laerm;22259;48.792;8.964;2023-04-03T00:03:02;42.01;38.78;47.92;;
36217;Laerm;22259;48.792;8.964;2023-04-03T00:05:28;41.97;39.02;46.97;;
36217;Laerm;22259;48.792;8.964;2023-04-03T00:07:53;41.91;39.08;49.31;;
36217;Laerm;22259;48.792;8.964;2023-04-03T00:10:18;41.97;38.56;48.62;;
36217;Laerm;22259;48.792;8.964;2023-04-03T00:12:44;41.06;38.49;46.75;;
36217;Laerm;22259;48.792;8.964;2023-04-03T00:15:09;41.53;37.92;46.83;;
36217;Laerm;22259;48.792;8.964;2023-04-03T00:17:35;42.41;38.88;48.96;;
36217;Laerm;22259;48.792;8.964;2023-04-03T00:20:00;41.37;38.52;59.16;;
36217;Laerm;22259;48.792;8.964;2023-04-03T00:22:26;41.80;38.60;49.18;;
36217;Laerm;22259;48.792;8.964;2023-04-03T00:24:53;41.76;38.21;50.08;;
36217;Laerm;22259;48.792;8.964;2023-04-03T00:27:18;41.14;37.82;48.53;;
36217;Laerm;22259;48.792;8.964;2023-04-03T00:29:44;41.91;38.41;49.05;;
36217;Laerm;22259;48.792;8.964;2023-04-03T00:32:09;41.06;37.32;48.03;;
36217;Laerm;22259;48.792;8.964;2023-04-03T00:34:35;42.23;38.63;48.95;;
36217;Laerm;22259;48.792;8.964;2023-04-03T00:37:00;41.67;38.32;49.10;;
36217;Laerm;22259;48.792;8.964;2023-04-03T00:39:25;41.98;38.18;54.89;;
36217;Laerm;22259;48.792;8.964;2023-04-03T00:41:51;42.26;39.08;49.62;;
36217;Laerm;22259;48.792;8.964;2023-04-03T00:44:20;42.10;38.45;47.42;;
36217;Laerm;22259;48.792;8.964;2023-04-03T00:46:45;42.51;39.52;48.71;;
36217;Laerm;22259;48.792;8.964;2023-04-03T00:49:11;42.24;38.85;50.81;;
36217;Laerm;22259;48.792;8.964;2023-04-03T00:51:36;42.41;39.08;50.35;;
36217;Laerm;22259;48.792;8.964;2023-04-03T00:54:02;42.13;38.88;49.58;;
36217;Laerm;22259;48.792;8.964;2023-04-03T00:56:30;43.30;39.75;46.96;;
36217;Laerm;22259;48.792;8.964;2023-04-03T00:59:06;43.24;39.92;49.08;;
36217;Laerm;22259;48.792;8.964;2023-04-03T01:01:33;43.01;39.67;49.90;;
36217;Laerm;22259;48.792;8.964;2023-04-03T01:04:00;42.66;39.18;49.30;;
36217;Laerm;22259;48.792;8.964;2023-04-03T01:06:29;42.51;38.49;49.65;;
36217;Laerm;22259;48.792;8.964;2023-04-03T01:08:57;42.74;38.92;50.09;;
36217;Laerm;22259;48.792;8.964;2023-04-03T01:11:22;42.70;38.49;47.67;;
36217;Laerm;22259;48.792;8.964;2023-04-03T01:13:48;42.99;38.71;49.35;;
36217;Laerm;22259;48.792;8.964;2023-04-03T01:16:14;42.64;39.40;49.49;;
36217;Laerm;22259;48.792;8.964;2023-04-03T01:18:40;42.35;38.98;48.98;;
36217;Laerm;22259;48.792;8.964;2023-04-03T01:21:28;42.87;39.34;48.71;;
36217;Laerm;22259;48.792;8.964;2023-04-03T01:26:46;42.93;39.78;54.14;;
36217;Laerm;22259;48.792;8.964;2023-04-03T01:29:11;42.53;39.40;49.20;;
36217;Laerm;22259;48.792;8.964;2023-04-03T01:32:10;42.54;39.18;49.87;;
36217;Laerm;22259;48.792;8.964;2023-04-03T01:34:35;43.00;39.67;50.01;;
36217;Laerm;22259;48.792;8.964;2023-04-03T01:37:00;42.87;40.03;47.15;;
36217;Laerm;22259;48.792;8.964;2023-04-03T01:39:26;43.44;40.38;51.01;;
36217;Laerm;22259;48.792;8.964;2023-04-03T01:41:51;43.13;40.38;49.41;;
36217;Laerm;22259;48.792;8.964;2023-04-03T01:44:17;43.26;40.13;49.32;;
36217;Laerm;22259;48.792;8.964;2023-04-03T01:46:42;43.30;39.84;49.90;;
36217;Laerm;22259;48.792;8.964;2023-04-03T01:49:08;43.82;41.32;49.82;;
36217;Laerm;22259;48.792;8.964;2023-04-03T01:51:33;43.13;40.48;49.67;;
36217;Laerm;22259;48.792;8.964;2023-04-03T01:53:58;43.28;40.16;49.50;;
36217;Laerm;22259;48.792;8.964;2023-04-03T01:56:24;43.07;40.36;49.15;;
36217;Laerm;22259;48.792;8.964;2023-04-03T01:58:50;42.82;39.81;49.41;;
36217;Laerm;22259;48.792;8.964;2023-04-03T02:01:15;48.19;39.78;65.66;;
36217;Laerm;22259;48.792;8.964;2023-04-03T02:03:41;49.74;39.73;69.91;;
36217;Laerm;22259;48.792;8.964;2023-04-03T02:06:06;42.71;39.58;48.46;;
36217;Laerm;22259;48.792;8.964;2023-04-03T02:08:31;43.63;40.91;49.03;;
36217;Laerm;22259;48.792;8.964;2023-04-03T02:10:57;43.91;41.20;49.40;;
36217;Laerm;22259;48.792;8.964;2023-04-03T02:13:22;43.28;40.95;47.45;;
36217;Laerm;22259;48.792;8.964;2023-04-03T02:15:48;43.37;40.31;54.88;;
36217;Laerm;22259;48.792;8.964;2023-04-03T02:18:13;44.00;40.26;49.58;;
36217;Laerm;22259;48.792;8.964;2023-04-03T02:20:39;44.19;41.24;50.22;;
36217;Laerm;22259;48.792;8.964;2023-04-03T02:23:04;44.54;41.66;49.70;;
36217;Laerm;22259;48.792;8.964;2023-04-03T02:25:30;44.17;41.48;48.58;;
36217;Laerm;22259;48.792;8.964;2023-04-03T02:27:56;44.57;41.32;50.20;;
36217;Laerm;22259;48.792;8.964;2023-04-03T02:30:21;44.55;41.02;51.00;;
36217;Laerm;22259;48.792;8.964;2023-04-03T02:32:47;43.84;41.08;49.73;;
36217;Laerm;22259;48.792;8.964;2023-04-03T02:35:12;44.21;41.10;49.76;;
36217;Laerm;22259;48.792;8.964;2023-04-03T02:37:38;44.13;41.14;49.63;;
36217;Laerm;22259;48.792;8.964;2023-04-03T02:40:04;44.08;41.14;48.91;;
36217;Laerm;22259;48.792;8.964;2023-04-03T02:42:29;43.82;40.28;48.18;;
36217;Laerm;22259;48.792;8.964;2023-04-03T02:44:55;52.81;41.57;68.85;;
36217;Laerm;22259;48.792;8.964;2023-04-03T02:47:20;44.04;41.66;49.86;;
36217;Laerm;22259;48.792;8.964;2023-04-03T02:49:46;43.92;40.38;51.84;;
36217;Laerm;22259;48.792;8.964;2023-04-03T02:52:12;49.55;41.24;63.99;;
36217;Laerm;22259;48.792;8.964;2023-04-03T02:54:37;43.32;40.21;48.23;;
36217;Laerm;22259;48.792;8.964;2023-04-03T02:57:03;44.66;41.42;49.31;;
36217;Laerm;22259;48.792;8.964;2023-04-03T02:59:28;44.23;42.22;49.68;;
36217;Laerm;22259;48.792;8.964;2023-04-03T03:01:53;47.35;41.70;61.55;;
36217;Laerm;22259;48.792;8.964;2023-04-03T03:04:20;44.06;40.95;49.92;;
36217;Laerm;22259;48.792;8.964;2023-04-03T03:06:45;44.01;41.36;49.37;;
36217;Laerm;22259;48.792;8.964;2023-04-03T03:09:11;44.32;40.60;50.00;;
36217;Laerm;22259;48.792;8.964;2023-04-03T03:11:38;44.36;41.46;48.39;;
36217;Laerm;22259;48.792;8.964;2023-04-03T03:14:03;44.34;41.34;50.26;;
36217;Laerm;22259;48.792;8.964;2023-04-03T03:16:29;44.63;42.46;50.62;;
36217;Laerm;22259;48.792;8.964;2023-04-03T03:18:54;44.43;41.96;49.71;;
36217;Laerm;22259;48.792;8.964;2023-04-03T03:21:20;44.33;42.20;49.97;;
36217;Laerm;22259;48.792;8.964;2023-04-03T03:23:45;51.51;42.02;69.91;;
36217;Laerm;22259;48.792;8.964;2023-04-03T03:26:10;44.15;41.89;46.84;;
36217;Laerm;22259;48.792;8.964;2023-04-03T03:28:36;44.43;42.04;48.90;;
36217;Laerm;22259;48.792;8.964;2023-04-03T03:31:02;43.95;41.94;50.56;;
36217;Laerm;22259;48.792;8.964;2023-04-03T03:33:28;46.30;41.93;61.64;;
36217;Laerm;22259;48.792;8.964;2023-04-03T03:35:53;44.51;41.61;49.64;;
36217;Laerm;22259;48.792;8.964;2023-04-03T03:38:19;44.38;41.59;48.24;;
36217;Laerm;22259;48.792;8.964;2023-04-03T03:40:46;45.15;42.56;50.08;;
36217;Laerm;22259;48.792;8.964;2023-04-03T03:43:12;44.54;41.81;48.95;;
36217;Laerm;22259;48.792;8.964;2023-04-03T03:45:37;44.33;42.16;49.48;;
36217;Laerm;22259;48.792;8.964;2023-04-03T03:48:03;53.33;42.70;67.58;;
36217;Laerm;22259;48.792;8.964;2023-04-03T03:50:28;45.05;42.82;49.18;;
36217;Laerm;22259;48.792;8.964;2023-04-03T03:52:54;55.17;42.22;71.47;;
36217;Laerm;22259;48.792;8.964;2023-04-03T03:55:20;44.41;41.79;47.93;;
36217;Laerm;22259;48.792;8.964;2023-04-03T03:57:45;45.10;42.78;51.97;;
36217;Laerm;22259;48.792;8.964;2023-04-03T04:00:10;48.29;42.53;63.98;;
36217;Laerm;22259;48.792;8.964;2023-04-03T04:02:36;50.19;42.37;65.19;;
36217;Laerm;22259;48.792;8.964;2023-04-03T04:05:01;60.05;43.05;74.14;;
36217;Laerm;22259;48.792;8.964;2023-04-03T04:07:27;45.81;42.93;54.33;;
36217;Laerm;22259;48.792;8.964;2023-04-03T04:09:54;47.44;43.37;60.23;;
36217;Laerm;22259;48.792;8.964;2023-04-03T04:12:20;54.27;43.34;71.37;;
36217;Laerm;22259;48.792;8.964;2023-04-03T04:14:45;48.48;43.56;63.54;;
36217;Laerm;22259;48.792;8.964;2023-04-03T04:17:12;54.04;43.66;68.80;;
36217;Laerm;22259;48.792;8.964;2023-04-03T04:19:37;51.64;43.70;64.13;;
36217;Laerm;22259;48.792;8.964;2023-04-03T04:22:03;53.53;44.01;64.73;;
36217;Laerm;22259;48.792;8.964;2023-04-03T04:24:28;54.56;43.17;66.05;;
36217;Laerm;22259;48.792;8.964;2023-04-03T04:26:54;55.98;44.33;69.74;;
36217;Laerm;22259;48.792;8.964;2023-04-03T04:29:19;58.17;43.33;72.54;;
36217;Laerm;22259;48.792;8.964;2023-04-03T04:31:45;59.74;43.88;74.20;;
36217;Laerm;22259;48.792;8.964;2023-04-03T04:34:10;56.13;43.73;69.74;;
36217;Laerm;22259;48.792;8.964;2023-04-03T04:36:35;57.84;44.16;75.78;;
36217;Laerm;22259;48.792;8.964;2023-04-03T04:39:01;57.20;43.24;74.59;;
36217;Laerm;22259;48.792;8.964;2023-04-03T04:41:26;51.41;43.15;65.27;;
36217;Laerm;22259;48.792;8.964;2023-04-03T04:43:51;53.10;43.33;74.43;;
36217;Laerm;22259;48.792;8.964;2023-04-03T04:46:17;56.96;43.54;69.56;;
36217;Laerm;22259;48.792;8.964;2023-04-03T04:48:43;53.17;43.15;70.28;;
36217;Laerm;22259;48.792;8.964;2023-04-03T04:51:08;51.49;43.44;70.39;;
36217;Laerm;22259;48.792;8.964;2023-04-03T04:53:34;48.67;43.47;62.77;;
36217;Laerm;22259;48.792;8.964;2023-04-03T04:55:59;47.25;43.37;62.04;;
36217;Laerm;22259;48.792;8.964;2023-04-03T04:58:25;46.97;42.86;55.90;;
36217;Laerm;22259;48.792;8.964;2023-04-03T05:00:58;47.30;44.04;61.46;;
36217;Laerm;22259;48.792;8.964;2023-04-03T05:03:23;50.35;43.76;65.86;;
36217;Laerm;22259;48.792;8.964;2023-04-03T05:05:49;46.17;43.77;52.64;;
36217;Laerm;22259;48.792;8.964;2023-04-03T05:08:14;54.71;43.93;71.99;;
36217;Laerm;22259;48.792;8.964;2023-04-03T05:10:39;51.15;44.04;72.21;;
36217;Laerm;22259;48.792;8.964;2023-04-03T05:13:06;47.08;44.04;57.00;;
36217;Laerm;22259;48.792;8.964;2023-04-03T05:15:31;56.26;44.32;69.76;;
36217;Laerm;22259;48.792;8.964;2023-04-03T05:17:57;47.49;43.94;60.98;;
36217;Laerm;22259;48.792;8.964;2023-04-03T05:20:22;64.24;43.96;81.58;;
36217;Laerm;22259;48.792;8.964;2023-04-03T05:22:48;48.91;43.65;62.51;;
36217;Laerm;22259;48.792;8.964;2023-04-03T05:25:13;47.18;43.56;56.56;;
36217;Laerm;22259;48.792;8.964;2023-04-03T05:27:39;49.71;44.00;64.95;;
36217;Laerm;22259;48.792;8.964;2023-04-03T05:30:04;47.36;43.50;61.26;;
36217;Laerm;22259;48.792;8.964;2023-04-03T05:32:30;52.97;43.96;68.58;;
36217;Laerm;22259;48.792;8.964;2023-04-03T05:34:55;52.79;43.29;69.50;;
36217;Laerm;22259;48.792;8.964;2023-04-03T05:37:21;45.88;42.93;55.30;;
36217;Laerm;22259;48.792;8.964;2023-04-03T05:39:46;54.76;42.64;69.12;;
36217;Laerm;22259;48.792;8.964;2023-04-03T05:42:12;49.09;44.05;65.07;;
36217;Laerm;22259;48.792;8.964;2023-04-03T05:44:38;46.52;43.23;57.81;;
36217;Laerm;22259;48.792;8.964;2023-04-03T05:47:03;59.15;43.10;73.61;;
36217;Laerm;22259;48.792;8.964;2023-04-03T05:49:29;54.18;43.18;68.18;;
36217;Laerm;22259;48.792;8.964;2023-04-03T05:51:54;46.46;43.21;60.27;;
36217;Laerm;22259;48.792;8.964;2023-04-03T05:54:21;52.11;43.63;67.58;;
36217;Laerm;22259;48.792;8.964;2023-04-03T05:56:48;47.30;43.38;67.22;;
36217;Laerm;22259;48.792;8.964;2023-04-03T05:59:14;49.44;42.62;71.60;;
36217;Laerm;22259;48.792;8.964;2023-04-03T06:01:39;50.85;43.23;66.69;;
36217;Laerm;22259;48.792;8.964;2023-04-03T06:04:05;53.91;43.51;69.71;;
36217;Laerm;22259;48.792;8.964;2023-04-03T06:10:00;46.27;43.32;59.27;;
36217;Laerm;22259;48.792;8.964;2023-04-03T06:12:26;45.96;42.55;59.01;;
36217;Laerm;22259;48.792;8.964;2023-04-03T06:14:54;46.64;44.07;59.78;;
36217;Laerm;22259;48.792;8.964;2023-04-03T06:17:19;54.47;43.63;68.94;;
36217;Laerm;22259;48.792;8.964;2023-04-03T06:19:45;52.26;43.33;66.75;;
36217;Laerm;22259;48.792;8.964;2023-04-03T06:22:10;46.10;43.41;56.30;;
36217;Laerm;22259;48.792;8.964;2023-04-03T06:24:36;62.10;43.58;76.90;;
36217;Laerm;22259;48.792;8.964;2023-04-03T06:27:02;45.62;42.83;57.49;;
36217;Laerm;22259;48.792;8.964;2023-04-03T06:29:27;45.94;43.48;59.16;;
36217;Laerm;22259;48.792;8.964;2023-04-03T06:31:53;45.48;43.02;49.70;;
36217;Laerm;22259;48.792;8.964;2023-04-03T06:34:18;52.51;42.81;68.24;;
36217;Laerm;22259;48.792;8.964;2023-04-03T06:36:44;45.39;42.81;50.11;;
36217;Laerm;22259;48.792;8.964;2023-04-03T06:39:14;51.33;43.37;66.62;;
36217;Laerm;22259;48.792;8.964;2023-04-03T06:41:40;46.72;43.00;69.59;;
36217;Laerm;22259;48.792;8.964;2023-04-03T06:44:05;49.31;42.85;64.05;;
36217;Laerm;22259;48.792;8.964;2023-04-03T06:46:31;54.42;43.32;68.84;;
36217;Laerm;22259;48.792;8.964;2023-04-03T06:48:56;50.98;43.24;67.23;;
36217;Laerm;22259;48.792;8.964;2023-04-03T06:51:23;45.69;43.08;49.75;;
36217;Laerm;22259;48.792;8.964;2023-04-03T06:53:49;45.63;43.32;64.21;;
36217;Laerm;22259;48.792;8.964;2023-04-03T06:56:16;45.95;43.32;49.09;;
36217;Laerm;22259;48.792;8.964;2023-04-03T06:58:41;45.32;43.17;51.12;;
36217;Laerm;22259;48.792;8.964;2023-04-03T07:01:07;52.05;43.14;66.94;;
36217;Laerm;22259;48.792;8.964;2023-04-03T07:03:34;45.63;43.06;58.19;;
36217;Laerm;22259;48.792;8.964;2023-04-03T07:06:00;46.61;43.42;66.12;;
36217;Laerm;22259;48.792;8.964;2023-04-03T07:08:25;45.51;42.79;55.92;;
36217;Laerm;22259;48.792;8.964;2023-04-03T07:10:51;46.14;43.41;55.78;;
36217;Laerm;22259;48.792;8.964;2023-04-03T07:13:16;46.64;43.41;53.52;;
36217;Laerm;22259;48.792;8.964;2023-04-03T07:15:42;46.18;43.37;54.98;;
36217;Laerm;22259;48.792;8.964;2023-04-03T07:18:07;52.91;43.87;66.77;;
36217;Laerm;22259;48.792;8.964;2023-04-03T07:20:34;51.52;43.39;68.32;;
36217;Laerm;22259;48.792;8.964;2023-04-03T07:22:59;54.49;43.14;68.98;;
36217;Laerm;22259;48.792;8.964;2023-04-03T07:25:27;45.66;42.65;64.44;;
36217;Laerm;22259;48.792;8.964;2023-04-03T07:27:52;45.84;43.36;49.77;;
36217;Laerm;22259;48.792;8.964;2023-04-03T07:30:19;52.98;43.63;69.32;;
36217;Laerm;22259;48.792;8.964;2023-04-03T07:32:44;50.59;42.97;74.29;;
36217;Laerm;22259;48.792;8.964;2023-04-03T07:35:10;52.55;43.19;68.02;;
36217;Laerm;22259;48.792;8.964;2023-04-03T07:37:35;45.81;42.33;55.92;;
36217;Laerm;22259;48.792;8.964;2023-04-03T07:40:01;53.16;42.64;68.55;;
36217;Laerm;22259;48.792;8.964;2023-04-03T07:42:28;45.91;42.68;54.25;;
36217;Laerm;22259;48.792;8.964;2023-04-03T07:44:54;53.47;43.80;67.94;;
36217;Laerm;22259;48.792;8.964;2023-04-03T07:47:19;51.48;43.99;67.70;;
36217;Laerm;22259;48.792;8.964;2023-04-03T07:49:45;46.38;42.98;64.94;;
36217;Laerm;22259;48.792;8.964;2023-04-03T07:52:11;47.40;44.04;59.40;;
36217;Laerm;22259;48.792;8.964;2023-04-03T07:54:36;46.16;43.48;57.46;;
36217;Laerm;22259;48.792;8.964;2023-04-03T07:57:02;46.42;43.82;51.50;;
36217;Laerm;22259;48.792;8.964;2023-04-03T07:59:27;46.70;43.53;57.34;;
36217;Laerm;22259;48.792;8.964;2023-04-03T08:01:52;46.08;43.64;53.19;;
36217;Laerm;22259;48.792;8.964;2023-04-03T08:04:18;52.14;43.13;68.14;;
36217;Laerm;22259;48.792;8.964;2023-04-03T08:06:43;53.49;42.79;69.52;;
36217;Laerm;22259;48.792;8.964;2023-04-03T08:09:09;47.01;43.38;55.28;;
36217;Laerm;22259;48.792;8.964;2023-04-03T08:11:34;45.61;42.56;52.97;;
36217;Laerm;22259;48.792;8.964;2023-04-03T08:14:01;45.46;42.98;54.75;;
36217;Laerm;22259;48.792;8.964;2023-04-03T08:16:27;52.04;43.21;67.70;;
36217;Laerm;22259;48.792;8.964;2023-04-03T08:18:53;45.95;42.86;54.27;;
36217;Laerm;22259;48.792;8.964;2023-04-03T08:21:19;51.65;42.71;66.66;;
36217;Laerm;22259;48.792;8.964;2023-04-03T08:23:44;46.02;43.33;64.47;;
36217;Laerm;22259;48.792;8.964;2023-04-03T08:26:11;45.83;43.29;52.45;;
36217;Laerm;22259;48.792;8.964;2023-04-03T08:28:37;45.81;42.50;51.15;;
36217;Laerm;22259;48.792;8.964;2023-04-03T08:31:03;54.46;42.62;68.38;;
36217;Laerm;22259;48.792;8.964;2023-04-03T08:33:31;45.57;43.28;50.29;;
36217;Laerm;22259;48.792;8.964;2023-04-03T08:35:56;46.06;43.53;50.69;;
36217;Laerm;22259;48.792;8.964;2023-04-03T08:38:21;46.76;43.32;55.67;;
36217;Laerm;22259;48.792;8.964;2023-04-03T08:40:47;52.40;43.76;74.48;;
36217;Laerm;22259;48.792;8.964;2023-04-03T08:43:20;47.54;43.47;67.83;;
36217;Laerm;22259;48.792;8.964;2023-04-03T08:45:53;54.72;43.99;69.44;;
36217;Laerm;22259;48.792;8.964;2023-04-03T08:48:25;50.92;43.23;66.20;;
36217;Laerm;22259;48.792;8.964;2023-04-03T08:50:59;45.59;43.04;59.18;;
36217;Laerm;22259;48.792;8.964;2023-04-03T08:53:26;50.84;43.12;65.52;;
36217;Laerm;22259;48.792;8.964;2023-04-03T08:55:53;51.51;43.14;66.17;;
36217;Laerm;22259;48.792;8.964;2023-04-03T08:58:26;48.25;43.31;58.68;;
36217;Laerm;22259;48.792;8.964;2023-04-03T09:01:03;53.07;43.47;68.00;;
36217;Laerm;22259;48.792;8.964;2023-04-03T09:03:30;47.64;43.23;63.61;;
36217;Laerm;22259;48.792;8.964;2023-04-03T09:06:11;64.52;42.97;81.17;;
36217;Laerm;22259;48.792;8.964;2023-04-03T09:08:43;45.33;42.53;55.29;;
36217;Laerm;22259;48.792;8.964;2023-04-03T09:15:22;49.17;42.76;69.69;;
36217;Laerm;22259;48.792;8.964;2023-04-03T09:18:05;55.41;42.72;70.88;;
36217;Laerm;22259;48.792;8.964;2023-04-03T09:20:36;46.29;43.09;52.40;;
36217;Laerm;22259;48.792;8.964;2023-04-03T09:23:10;46.34;43.56;58.60;;
36217;Laerm;22259;48.792;8.964;2023-04-03T09:25:40;45.86;43.06;57.20;;
36217;Laerm;22259;48.792;8.964;2023-04-03T09:28:05;46.48;43.41;57.30;;
36217;Laerm;22259;48.792;8.964;2023-04-03T09:30:35;53.07;43.22;69.61;;
36217;Laerm;22259;48.792;8.964;2023-04-03T09:33:00;50.31;42.81;65.13;;
36217;Laerm;22259;48.792;8.964;2023-04-03T09:35:27;45.31;42.71;55.47;;
36217;Laerm;22259;48.792;8.964;2023-04-03T09:37:54;46.68;43.54;61.08;;
36217;Laerm;22259;48.792;8.964;2023-04-03T09:40:37;45.31;42.69;56.44;;
36217;Laerm;22259;48.792;8.964;2023-04-03T09:52:25;50.57;42.37;74.23;;
36217;Laerm;22259;48.792;8.964;2023-04-03T09:54:51;45.16;42.92;52.35;;
36217;Laerm;22259;48.792;8.964;2023-04-03T09:57:17;47.10;42.93;62.84;;
36217;Laerm;22259;48.792;8.964;2023-04-03T09:59:45;52.80;42.47;68.64;;
36217;Laerm;22259;48.792;8.964;2023-04-03T10:02:20;52.18;42.30;67.75;;
36217;Laerm;22259;48.792;8.964;2023-04-03T10:04:46;45.11;42.72;49.22;;
36217;Laerm;22259;48.792;8.964;2023-04-03T10:07:31;48.61;43.50;62.82;;
36217;Laerm;22259;48.792;8.964;2023-04-03T10:10:01;45.61;42.55;59.96;;
36217;Laerm;22259;48.792;8.964;2023-04-03T10:12:29;46.31;42.29;63.22;;
36217;Laerm;22259;48.792;8.964;2023-04-03T10:14:59;52.38;42.66;69.11;;
36217;Laerm;22259;48.792;8.964;2023-04-03T10:20:12;49.89;43.02;65.47;;
36217;Laerm;22259;48.792;8.964;2023-04-03T10:22:48;48.98;42.93;67.97;;
36217;Laerm;22259;48.792;8.964;2023-04-03T10:25:28;45.88;42.38;57.02;;
36217;Laerm;22259;48.792;8.964;2023-04-03T10:28:34;45.52;42.98;49.58;;
36217;Laerm;22259;48.792;8.964;2023-04-03T10:31:15;52.65;43.10;71.98;;
36217;Laerm;22259;48.792;8.964;2023-04-03T10:33:47;52.08;42.61;68.08;;
36217;Laerm;22259;48.792;8.964;2023-04-03T10:40:20;48.05;42.29;75.16;;
36217;Laerm;22259;48.792;8.964;2023-04-03T10:45:49;52.20;43.19;68.28;;
36217;Laerm;22259;48.792;8.964;2023-04-03T10:57:31;50.62;42.82;74.41;;
36217;Laerm;22259;48.792;8.964;2023-04-03T10:59:57;46.39;43.17;59.18;;
36217;Laerm;22259;48.792;8.964;2023-04-03T11:02:31;52.90;43.00;67.84;;
36217;Laerm;22259;48.792;8.964;2023-04-03T11:05:04;51.05;43.21;68.68;;
36217;Laerm;22259;48.792;8.964;2023-04-03T11:07:42;46.46;42.72;63.59;;
36217;Laerm;22259;48.792;8.964;2023-04-03T11:10:53;46.50;42.85;65.88;;
36217;Laerm;22259;48.792;8.964;2023-04-03T11:13:30;45.37;43.04;53.31;;
36217;Laerm;22259;48.792;8.964;2023-04-03T11:15:58;52.51;43.18;68.36;;
36217;Laerm;22259;48.792;8.964;2023-04-03T11:20:17;51.11;42.72;66.84;;
36217;Laerm;22259;48.792;8.964;2023-04-03T11:22:51;46.97;43.61;56.86;;
36217;Laerm;22259;48.792;8.964;2023-04-03T11:25:19;45.96;43.27;59.65;;
36217;Laerm;22259;48.792;8.964;2023-04-03T11:27:49;47.70;42.47;68.67;;
36217;Laerm;22259;48.792;8.964;2023-04-03T11:31:07;46.87;42.81;57.08;;
36217;Laerm;22259;48.792;8.964;2023-04-03T11:33:40;54.86;42.88;71.85;;
36217;Laerm;22259;48.792;8.964;2023-04-03T11:36:08;48.68;42.82;64.44;;
36217;Laerm;22259;48.792;8.964;2023-04-03T11:38:36;46.55;41.96;65.23;;
36217;Laerm;22259;48.792;8.964;2023-04-03T11:41:04;50.03;42.88;64.60;;
36217;Laerm;22259;48.792;8.964;2023-04-03T11:43:32;53.78;43.42;74.74;;
36217;Laerm;22259;48.792;8.964;2023-04-03T11:46:01;55.04;42.86;76.68;;
36217;Laerm;22259;48.792;8.964;2023-04-03T11:51:37;46.36;43.09;62.33;;
36217;Laerm;22259;48.792;8.964;2023-04-03T11:58:25;45.98;42.90;58.01;;
36217;Laerm;22259;48.792;8.964;2023-04-03T12:01:07;52.92;42.49;69.05;;
36217;Laerm;22259;48.792;8.964;2023-04-03T12:03:33;48.71;43.05;63.01;;
36217;Laerm;22259;48.792;8.964;2023-04-03T12:09:58;45.94;42.93;53.20;;
36217;Laerm;22259;48.792;8.964;2023-04-03T12:12:33;46.83;42.87;63.50;;
36217;Laerm;22259;48.792;8.964;2023-04-03T12:15:22;54.84;43.17;69.63;;
36217;Laerm;22259;48.792;8.964;2023-04-03T12:17:48;51.45;42.56;69.60;;
36217;Laerm;22259;48.792;8.964;2023-04-03T12:20:46;45.62;43.01;57.81;;
36217;Laerm;22259;48.792;8.964;2023-04-03T12:23:25;48.68;43.00;74.07;;
36217;Laerm;22259;48.792;8.964;2023-04-03T12:25:51;45.52;42.72;51.45;;
36217;Laerm;22259;48.792;8.964;2023-04-03T12:28:16;45.40;43.08;50.09;;
36217;Laerm;22259;48.792;8.964;2023-04-03T12:30:42;46.48;42.78;65.22;;
36217;Laerm;22259;48.792;8.964;2023-04-03T12:33:27;51.13;43.21;65.52;;
36217;Laerm;22259;48.792;8.964;2023-04-03T12:36:06;52.06;42.86;68.00;;
36217;Laerm;22259;48.792;8.964;2023-04-03T12:41:27;45.47;43.23;63.63;;
36217;Laerm;22259;48.792;8.964;2023-04-03T12:44:13;45.31;42.19;49.74;;
36217;Laerm;22259;48.792;8.964;2023-04-03T12:46:48;52.00;42.96;67.92;;
36217;Laerm;22259;48.792;8.964;2023-04-03T12:53:32;50.22;43.05;69.06;;
36217;Laerm;22259;48.792;8.964;2023-04-03T12:56:18;46.71;43.26;56.67;;
36217;Laerm;22259;48.792;8.964;2023-04-03T12:58:44;45.46;42.35;49.97;;
36217;Laerm;22259;48.792;8.964;2023-04-03T13:01:15;54.68;42.52;70.25;;
36217;Laerm;22259;48.792;8.964;2023-04-03T13:03:43;48.50;42.27;66.30;;
36217;Laerm;22259;48.792;8.964;2023-04-03T13:06:19;45.23;42.53;57.92;;
36217;Laerm;22259;48.792;8.964;2023-04-03T13:08:51;45.51;42.71;56.73;;
36217;Laerm;22259;48.792;8.964;2023-04-03T13:11:16;50.76;42.11;67.22;;
36217;Laerm;22259;48.792;8.964;2023-04-03T13:13:59;44.92;42.83;49.31;;
36217;Laerm;22259;48.792;8.964;2023-04-03T13:16:25;55.09;43.78;69.98;;
36217;Laerm;22259;48.792;8.964;2023-04-03T13:18:51;46.03;42.62;63.09;;
36217;Laerm;22259;48.792;8.964;2023-04-03T13:21:18;45.72;43.02;52.83;;
36217;Laerm;22259;48.792;8.964;2023-04-03T13:23:45;45.85;43.41;51.92;;
36217;Laerm;22259;48.792;8.964;2023-04-03T13:26:12;45.56;43.17;56.86;;
36217;Laerm;22259;48.792;8.964;2023-04-03T13:28:39;45.97;43.24;50.89;;
36217;Laerm;22259;48.792;8.964;2023-04-03T13:31:48;60.16;44.00;70.76;;
36217;Laerm;22259;48.792;8.964;2023-04-03T13:34:18;45.88;43.15;60.43;;
36217;Laerm;22259;48.792;8.964;2023-04-03T13:39:42;51.96;43.06;68.35;;
36217;Laerm;22259;48.792;8.964;2023-04-03T13:42:41;58.41;43.31;73.39;;
36217;Laerm;22259;48.792;8.964;2023-04-03T13:45:28;44.94;42.59;52.89;;
36217;Laerm;22259;48.792;8.964;2023-04-03T13:52:32;45.85;43.00;60.84;;
36217;Laerm;22259;48.792;8.964;2023-04-03T13:55:23;47.96;42.24;69.49;;
36217;Laerm;22259;48.792;8.964;2023-04-03T13:57:53;54.23;42.37;69.26;;
36217;Laerm;22259;48.792;8.964;2023-04-03T14:00:21;52.88;42.90;72.55;;
36217;Laerm;22259;48.792;8.964;2023-04-03T14:02:46;55.82;43.41;69.67;;
36217;Laerm;22259;48.792;8.964;2023-04-03T14:05:12;44.99;42.82;58.03;;
36217;Laerm;22259;48.792;8.964;2023-04-03T14:07:37;54.02;42.97;70.02;;
36217;Laerm;22259;48.792;8.964;2023-04-03T14:10:03;44.81;42.55;54.26;;
36217;Laerm;22259;48.792;8.964;2023-04-03T14:12:38;45.02;42.93;51.44;;
36217;Laerm;22259;48.792;8.964;2023-04-03T14:15:11;57.40;42.26;74.73;;
36217;Laerm;22259;48.792;8.964;2023-04-03T14:17:40;45.53;42.37;57.83;;
36217;Laerm;22259;48.792;8.964;2023-04-03T14:20:06;44.63;42.27;49.51;;
36217;Laerm;22259;48.792;8.964;2023-04-03T14:22:32;51.54;42.62;67.77;;
36217;Laerm;22259;48.792;8.964;2023-04-03T14:24:58;46.16;43.10;58.04;;
36217;Laerm;22259;48.792;8.964;2023-04-03T14:27:25;45.24;42.38;59.79;;
36217;Laerm;22259;48.792;8.964;2023-04-03T14:29:52;54.45;43.26;71.71;;
36217;Laerm;22259;48.792;8.964;2023-04-03T14:32:19;52.49;43.02;68.40;;
36217;Laerm;22259;48.792;8.964;2023-04-03T14:34:44;46.97;42.90;63.95;;
36217;Laerm;22259;48.792;8.964;2023-04-03T14:37:11;45.97;42.61;65.99;;
36217;Laerm;22259;48.792;8.964;2023-04-03T14:39:37;55.97;42.97;71.78;;
36217;Laerm;22259;48.792;8.964;2023-04-03T14:42:02;46.32;42.59;64.56;;
36217;Laerm;22259;48.792;8.964;2023-04-03T14:44:28;46.80;42.78;63.54;;
36217;Laerm;22259;48.792;8.964;2023-04-03T14:46:53;54.55;43.53;73.94;;
36217;Laerm;22259;48.792;8.964;2023-04-03T14:49:19;48.72;42.30;63.92;;
36217;Laerm;22259;48.792;8.964;2023-04-03T14:51:46;49.64;42.64;64.28;;
36217;Laerm;22259;48.792;8.964;2023-04-03T14:54:15;48.82;42.66;66.91;;
36217;Laerm;22259;48.792;8.964;2023-04-03T14:56:41;47.24;42.75;69.19;;